Kezdőlap
METAR-TAF:

METAR-TAF

Repülőterek :

Carroll, Iowa, Amerikai Egyesült Államok

földrajzi szélesség: 42-03N, földrajzi hosszúság: 094-47W, magasság: 375 m

Jelenlegi meteorológiai megfigyelések

A jelentés 10 perccel ezelõtt készült, 13:15 UTC
Délnyugati szél 10 kt széllökések: 16 kt
Hőmérséklet 26°C
Páratartalom 100%
Légköri nyomás 1017 hPa
Látótávolság: 14.5 km
Derült ég

METAR: KCIN 281315Z AUTO 23010G16KT 9SM CLR 26/26 A3003 RMK AO2

Idő: 08:25 (13:25 UTC)


TAF: hiányzik

Meteorológiai megfigyelések és előrejelzések több, mint 4000 repülőtéren (METAR és TAF jelentéseket).

A térképen piros és sárga pontok jelzik az elérhető meteorológiai állomásokat.

Mozgassa az egeret a pont fölött, hogy megjelenjen az állomás neve.

Azután kattintson az időjárási megfigyelések és előrejelzések megtekintéséhez.

A térkép megváltoztatása: kattintson a fekete keresztel jelölt zöld gombra ráközelítéshez, a vonallal jelölt zöld gombra távolításhoz, vagy a zöld nyilakra a szomszédos térképek eléréséhez.


METAR-TAF: